createdAt,value
2022-11-26T00:01:00.918Z,23.70
2022-11-26T00:06:03.320Z,22.83
2022-11-26T00:11:08.053Z,18.60
2022-11-26T00:16:13.160Z,21.40
2022-11-26T00:21:26.013Z,20.92
2022-11-26T00:26:27.701Z,23.10
2022-11-26T00:31:29.833Z,21.63
2022-11-26T00:36:32.378Z,23.02
2022-11-26T00:41:38.424Z,18.55
2022-11-26T00:46:40.100Z,19.77
2022-11-26T00:51:42.877Z,15.82
2022-11-26T00:56:45.174Z,18.42
2022-11-26T01:01:46.996Z,18.35
2022-11-26T01:06:48.768Z,18.60
2022-11-26T01:11:54.016Z,18.38
2022-11-26T01:16:57.221Z,15.90
2022-11-26T01:21:59.056Z,16.83
2022-11-26T01:27:00.797Z,16.30
2022-11-26T01:32:02.612Z,15.43
2022-11-26T01:37:12.043Z,12.90
2022-11-26T01:42:41.738Z,16.55
2022-11-26T01:47:43.605Z,13.35
2022-11-26T01:52:45.326Z,14.75
2022-11-26T01:57:47.303Z,13.27
2022-11-26T02:02:49.440Z,13.00
2022-11-26T02:07:53.382Z,13.73
2022-11-26T02:12:55.242Z,14.27
2022-11-26T02:18:06.227Z,15.53
2022-11-26T02:23:45.527Z,14.35
2022-11-26T02:29:14.930Z,15.10
2022-11-26T02:34:22.647Z,15.15
2022-11-26T02:39:27.339Z,12.90
2022-11-26T02:44:33.511Z,16.30
2022-11-26T02:49:37.245Z,13.65
2022-11-26T02:54:41.567Z,15.50
2022-11-26T02:59:43.664Z,13.50
2022-11-26T03:04:50.705Z,12.77
2022-11-26T03:09:58.226Z,14.30
2022-11-26T03:15:00.075Z,13.27
2022-11-26T03:20:01.977Z,13.82
2022-11-26T03:25:04.879Z,13.97
2022-11-26T03:30:07.520Z,13.35
2022-11-26T03:35:09.677Z,13.30
2022-11-26T03:40:11.723Z,13.85
2022-11-26T03:45:13.553Z,14.15
2022-11-26T03:50:15.374Z,16.07
2022-11-26T03:55:17.155Z,12.30
2022-11-26T04:00:19.484Z,12.30
2022-11-26T04:05:21.299Z,10.00
2022-11-26T04:10:23.125Z,11.20
2022-11-26T04:15:24.959Z,11.75
2022-11-26T04:20:26.657Z,13.27
2022-11-26T04:25:28.448Z,12.05
2022-11-26T04:30:30.202Z,9.95
2022-11-26T04:35:32.059Z,9.05
2022-11-26T04:40:33.903Z,9.27
2022-11-26T04:45:35.693Z,10.93
2022-11-26T04:50:37.665Z,10.50
2022-11-26T04:55:39.579Z,8.73
2022-11-26T05:00:41.328Z,7.57
2022-11-26T05:05:43.149Z,9.57
2022-11-26T05:10:44.859Z,10.45
2022-11-26T05:15:46.587Z,9.33
2022-11-26T05:20:48.255Z,8.15
2022-11-26T05:25:51.002Z,8.18
2022-11-26T05:31:01.630Z,8.15
2022-11-26T05:36:03.966Z,8.07
2022-11-26T05:41:05.686Z,10.07
2022-11-26T05:46:08.855Z,11.63
2022-11-26T05:51:10.703Z,10.10
2022-11-26T05:56:12.457Z,11.27
2022-11-26T06:01:14.235Z,12.13
2022-11-26T06:06:15.942Z,9.27
2022-11-26T06:11:17.676Z,10.90
2022-11-26T06:16:19.452Z,10.40
2022-11-26T06:21:21.274Z,11.15
2022-11-26T06:26:23.050Z,9.65
2022-11-26T06:31:24.790Z,10.53
2022-11-26T06:36:26.522Z,11.57
2022-11-26T06:41:28.224Z,9.40
2022-11-26T06:46:31.015Z,12.50
2022-11-26T06:51:33.654Z,12.38
2022-11-26T06:56:35.415Z,11.05
2022-11-26T07:01:37.215Z,14.00
2022-11-26T07:06:39.035Z,17.15
2022-11-26T07:11:41.548Z,16.07
2022-11-26T07:16:43.220Z,18.93
2022-11-26T07:21:45.019Z,20.88
2022-11-26T07:26:46.928Z,14.10
2022-11-26T07:31:48.674Z,16.23
2022-11-26T07:36:53.958Z,17.33
2022-11-26T07:41:58.423Z,20.35
2022-11-26T07:47:00.133Z,16.27
2022-11-26T07:52:01.858Z,17.15
2022-11-26T07:57:03.536Z,18.52
2022-11-26T08:02:05.554Z,17.07
2022-11-26T08:07:07.392Z,17.50
2022-11-26T08:12:09.160Z,14.73
2022-11-26T08:17:10.880Z,21.33
2022-11-26T08:22:12.558Z,20.98
2022-11-26T08:27:14.231Z,17.08
2022-11-26T08:32:15.907Z,18.43
2022-11-26T08:37:17.579Z,15.20
2022-11-26T08:42:19.447Z,14.30
2022-11-26T08:47:21.553Z,16.52
2022-11-26T08:52:23.332Z,14.73
2022-11-26T08:57:25.054Z,13.00
2022-11-26T09:02:26.839Z,16.38
2022-11-26T09:07:28.595Z,15.20
2022-11-26T09:12:30.291Z,13.85
2022-11-26T09:17:32.095Z,17.73
2022-11-26T09:22:34.950Z,15.40
2022-11-26T09:27:36.747Z,16.20
2022-11-26T09:32:38.521Z,17.45
2022-11-26T09:37:40.340Z,19.63
2022-11-26T09:43:07.022Z,20.92
2022-11-26T09:48:16.145Z,17.08
2022-11-26T09:53:25.835Z,20.67
2022-11-26T09:58:42.759Z,18.93
2022-11-26T10:03:44.769Z,17.10
2022-11-26T10:09:05.104Z,16.70
2022-11-26T10:14:37.706Z,16.95
2022-11-26T10:20:06.683Z,18.05
2022-11-26T10:25:24.606Z,15.50
2022-11-26T10:30:29.329Z,14.90
2022-11-26T10:35:31.102Z,17.77
2022-11-26T10:40:33.242Z,16.95
2022-11-26T10:45:44.079Z,17.80
2022-11-26T10:50:59.072Z,14.70
2022-11-26T10:56:03.839Z,17.30
2022-11-26T11:01:06.793Z,15.85
2022-11-26T11:06:20.440Z,15.05
2022-11-26T11:11:28.010Z,17.88
2022-11-26T11:16:39.629Z,18.35
2022-11-26T11:21:48.034Z,20.03
2022-11-26T11:26:52.298Z,19.35
2022-11-26T11:31:54.915Z,23.90
2022-11-26T11:37:02.882Z,22.60
2022-11-26T11:42:14.567Z,23.92
2022-11-26T11:47:21.930Z,23.65
2022-11-26T11:52:42.180Z,25.60
2022-11-26T11:58:25.577Z,28.25
2022-11-26T12:03:52.241Z,30.92
2022-11-26T12:09:11.433Z,27.88
2022-11-26T12:14:29.801Z,30.67
2022-11-26T12:19:55.729Z,27.80
2022-11-26T12:25:04.053Z,29.33
2022-11-26T12:30:18.775Z,28.52
2022-11-26T12:35:34.165Z,28.80
2022-11-26T12:40:41.974Z,32.03
2022-11-26T12:46:05.015Z,29.45
2022-11-26T12:51:26.246Z,32.10
2022-11-26T12:56:40.861Z,29.95
2022-11-26T13:01:42.650Z,34.75
2022-11-26T13:07:03.114Z,29.00
2022-11-26T13:12:42.553Z,31.13
2022-11-26T13:17:46.475Z,27.52
2022-11-26T13:23:03.143Z,27.15
2022-11-26T13:28:27.376Z,27.30
2022-11-26T13:33:35.069Z,27.05
2022-11-26T13:39:14.534Z,23.95
2022-11-26T13:44:31.046Z,25.17
2022-11-26T13:49:46.744Z,25.92
2022-11-26T13:54:56.324Z,24.25
2022-11-26T13:59:59.594Z,23.90
2022-11-26T14:05:07.313Z,25.60
2022-11-26T14:10:34.761Z,25.48
2022-11-26T14:15:42.418Z,21.98
2022-11-26T14:20:59.478Z,22.87
2022-11-26T14:26:01.231Z,20.15
2022-11-26T14:31:22.814Z,24.47
2022-11-26T14:36:29.984Z,23.57
2022-11-26T14:42:00.505Z,23.92
2022-11-26T14:47:27.656Z,20.15
2022-11-26T14:52:35.470Z,21.75
2022-11-26T14:57:57.756Z,21.50
2022-11-26T15:03:00.147Z,25.38
2022-11-26T15:08:04.160Z,24.73
2022-11-26T15:13:16.387Z,22.07
2022-11-26T15:18:21.518Z,25.02
2022-11-26T15:23:37.646Z,22.13
2022-11-26T15:28:39.542Z,25.10
2022-11-26T15:33:42.470Z,24.65
2022-11-26T15:39:03.278Z,27.13
2022-11-26T15:44:05.393Z,25.83
2022-11-26T15:49:21.523Z,30.63
2022-11-26T15:54:49.519Z,30.52
2022-11-26T16:00:06.154Z,32.33
2022-11-26T16:05:42.597Z,34.00
2022-11-26T16:10:58.491Z,32.05
2022-11-26T16:16:17.236Z,32.10
2022-11-26T16:21:22.218Z,32.42
2022-11-26T16:26:24.518Z,26.75
2022-11-26T16:31:26.987Z,29.67
2022-11-26T16:36:34.033Z,31.00
2022-11-26T16:41:36.346Z,32.50
2022-11-26T16:46:38.884Z,31.05
2022-11-26T16:51:40.669Z,31.42
2022-11-26T16:56:43.076Z,28.88
2022-11-26T17:01:45.383Z,27.23
2022-11-26T17:06:48.020Z,31.55
2022-11-26T17:11:49.953Z,27.20
2022-11-26T17:16:51.920Z,26.10
2022-11-26T17:21:53.724Z,24.48
2022-11-26T17:26:56.420Z,25.63
2022-11-26T17:31:58.513Z,22.15
2022-11-26T17:37:00.559Z,23.03
2022-11-26T17:42:02.270Z,22.42
2022-11-26T17:47:16.708Z,26.17
2022-11-26T17:52:19.797Z,43.30
2022-11-26T17:57:21.537Z,25.90
2022-11-26T18:02:23.644Z,26.63
2022-11-26T18:07:25.426Z,21.73
2022-11-26T18:12:28.571Z,21.80
2022-11-26T18:17:30.896Z,21.03
2022-11-26T18:22:33.129Z,19.10
2022-11-26T18:27:36.309Z,19.33
2022-11-26T18:32:38.563Z,19.95
2022-11-26T18:37:41.121Z,15.98
2022-11-26T18:42:43.897Z,16.40
2022-11-26T18:47:45.813Z,16.25
2022-11-26T18:52:47.583Z,16.40
2022-11-26T18:57:49.269Z,16.58
2022-11-26T19:02:51.327Z,13.67
2022-11-26T19:07:53.502Z,13.43
2022-11-26T19:12:56.070Z,11.95
2022-11-26T19:17:58.506Z,13.07
2022-11-26T19:23:00.195Z,12.63
2022-11-26T19:28:04.987Z,13.07
2022-11-26T19:33:07.131Z,11.15
2022-11-26T19:38:08.917Z,11.17
2022-11-26T19:43:10.732Z,10.07
2022-11-26T19:48:12.515Z,11.73
2022-11-26T19:53:14.241Z,10.87
2022-11-26T19:58:15.932Z,10.98
2022-11-26T20:03:17.814Z,10.85
2022-11-26T20:08:19.583Z,10.98
2022-11-26T20:13:21.274Z,13.57
2022-11-26T20:18:23.042Z,14.43
2022-11-26T20:23:25.081Z,11.88
2022-11-26T20:28:26.869Z,11.38
2022-11-26T20:33:28.653Z,12.70
2022-11-26T20:38:30.374Z,13.40
2022-11-26T20:43:33.136Z,10.83
2022-11-26T20:48:36.161Z,10.85
2022-11-26T20:53:38.873Z,12.57
2022-11-26T20:58:41.340Z,12.80
2022-11-26T21:03:44.717Z,13.77
2022-11-26T21:08:47.046Z,12.57
2022-11-26T21:13:48.763Z,10.50
2022-11-26T21:18:53.408Z,11.35
2022-11-26T21:23:56.784Z,10.98
2022-11-26T21:29:00.643Z,9.73
2022-11-26T21:34:07.861Z,11.70
2022-11-26T21:39:14.291Z,11.60
2022-11-26T21:44:16.446Z,9.77
2022-11-26T21:49:18.404Z,12.40
2022-11-26T21:54:20.764Z,14.45
2022-11-26T21:59:23.136Z,11.40
2022-11-26T22:04:25.130Z,12.75
2022-11-26T22:09:26.990Z,10.57
2022-11-26T22:14:28.713Z,11.23
2022-11-26T22:19:30.420Z,10.18
2022-11-26T22:24:32.569Z,9.70
2022-11-26T22:29:34.286Z,11.63
2022-11-26T22:34:36.038Z,10.30
2022-11-26T22:39:37.993Z,11.57
2022-11-26T22:44:39.984Z,7.32
2022-11-26T22:49:41.826Z,8.55
2022-11-26T22:54:43.773Z,8.40
2022-11-26T22:59:45.493Z,7.38
2022-11-26T23:04:47.138Z,9.37
2022-11-26T23:09:49.046Z,7.88
2022-11-26T23:14:50.976Z,9.17
2022-11-26T23:19:52.726Z,8.57
2022-11-26T23:24:54.430Z,7.35
2022-11-26T23:29:56.112Z,8.80
2022-11-26T23:34:57.945Z,7.80
2022-11-26T23:39:59.652Z,8.82
2022-11-26T23:45:01.535Z,7.30
2022-11-26T23:50:04.052Z,7.88
2022-11-26T23:55:06.203Z,8.35
